createdAt,value
2023-12-09T00:01:42.789Z,100295.69
2023-12-09T00:04:10.055Z,100296.53
2023-12-09T00:06:37.171Z,100296.53
2023-12-09T00:09:04.666Z,100299.34
2023-12-09T00:11:31.405Z,100299.47
2023-12-09T00:14:04.845Z,100303.13
2023-12-09T00:16:32.090Z,100304.47
2023-12-09T00:19:00.742Z,100305.50
2023-12-09T00:21:28.237Z,100297.53
2023-12-09T00:23:54.880Z,100297.63
2023-12-09T00:26:21.522Z,100305.50
2023-12-09T00:28:48.105Z,100293.50
2023-12-09T00:31:14.727Z,100303.75
2023-12-09T00:33:42.015Z,100299.41
2023-12-09T00:36:09.192Z,100303.69
2023-12-09T00:38:35.845Z,100301.13
2023-12-09T00:41:02.618Z,100300.41
2023-12-09T00:43:29.214Z,100299.69
2023-12-09T00:45:55.742Z,100299.69
2023-12-09T00:48:22.473Z,100296.94
2023-12-09T00:50:49.202Z,100299.69
2023-12-09T00:53:15.831Z,100300.63
2023-12-09T00:55:42.424Z,100301.53
2023-12-09T00:58:08.950Z,100305.03
2023-12-09T01:00:35.597Z,100307.06
2023-12-09T01:03:02.322Z,100303.69
2023-12-09T01:05:28.951Z,100302.78
2023-12-09T01:07:55.532Z,100304.59
2023-12-09T01:10:22.100Z,100307.19
2023-12-09T01:12:48.743Z,100308.78
2023-12-09T01:15:16.464Z,100308.94
2023-12-09T01:17:43.031Z,100296.88
2023-12-09T01:20:10.282Z,100301.19
2023-12-09T01:22:36.817Z,100290.56
2023-12-09T01:25:03.770Z,100291.19
2023-12-09T01:27:30.399Z,100292.91
2023-12-09T01:29:57.001Z,100296.28
2023-12-09T01:32:23.616Z,100293.59
2023-12-09T01:34:50.258Z,100292.91
2023-12-09T01:37:16.834Z,100289.44
2023-12-09T01:39:43.468Z,100284.19
2023-12-09T01:42:10.860Z,100285.88
2023-12-09T01:44:37.499Z,100284.94
2023-12-09T01:47:04.628Z,100288.50
2023-12-09T01:49:31.694Z,100291.13
2023-12-09T01:52:00.485Z,100288.50
2023-12-09T01:54:28.434Z,100292.91
2023-12-09T01:56:57.222Z,100298.16
2023-12-09T01:59:24.326Z,100298.16
2023-12-09T02:01:53.008Z,100283.16
2023-12-09T02:04:20.964Z,100297.06
2023-12-09T02:06:47.668Z,100292.75
2023-12-09T02:09:14.735Z,100300.63
2023-12-09T02:11:41.364Z,100293.53
2023-12-09T02:14:33.926Z,100288.28
2023-12-09T02:17:16.955Z,100290.13
2023-12-09T02:19:43.832Z,100288.41
2023-12-09T02:22:10.919Z,100289.38
2023-12-09T02:24:37.812Z,100280.63
2023-12-09T02:27:11.167Z,100292.00
2023-12-09T02:30:08.674Z,100290.28
2023-12-09T02:32:36.281Z,100284.13
2023-12-09T02:35:04.526Z,100281.00
2023-12-09T02:37:32.981Z,100278.78
2023-12-09T02:40:01.867Z,100277.25
2023-12-09T02:42:28.946Z,100278.03
2023-12-09T02:44:57.429Z,100283.19
2023-12-09T02:47:24.062Z,100280.56
2023-12-09T02:49:50.895Z,100286.53
2023-12-09T02:52:17.634Z,100294.47
2023-12-09T02:54:44.242Z,100295.31
2023-12-09T02:57:10.905Z,100290.56
2023-12-09T02:59:37.608Z,100287.88
2023-12-09T03:02:04.387Z,100288.59
2023-12-09T03:04:32.383Z,100293.97
2023-12-09T03:06:59.258Z,100293.91
2023-12-09T03:09:25.884Z,100295.47
2023-12-09T03:11:52.521Z,100295.53
2023-12-09T03:14:19.232Z,100306.09
2023-12-09T03:16:45.771Z,100306.88
2023-12-09T03:19:12.459Z,100307.81
2023-12-09T03:21:39.121Z,100310.50
2023-12-09T03:24:05.948Z,100311.00
2023-12-09T03:26:32.594Z,100312.75
2023-12-09T03:28:59.107Z,100310.06
2023-12-09T03:31:25.627Z,100306.38
2023-12-09T03:33:52.365Z,100309.69
2023-12-09T03:36:19.136Z,100305.25
2023-12-09T03:38:45.810Z,100311.22
2023-12-09T03:41:12.398Z,100303.47
2023-12-09T03:43:39.333Z,100314.81
2023-12-09T03:46:06.089Z,100309.63
2023-12-09T03:48:33.199Z,100317.50
2023-12-09T03:50:59.958Z,100326.41
2023-12-09T03:53:26.599Z,100317.50
2023-12-09T03:55:53.218Z,100315.16
2023-12-09T03:58:21.792Z,100317.84
2023-12-09T04:00:48.602Z,100314.31
2023-12-09T04:03:15.884Z,100316.88
2023-12-09T04:05:42.747Z,100327.25
2023-12-09T04:08:09.818Z,100321.84
2023-12-09T04:10:36.401Z,100319.22
2023-12-09T04:13:02.973Z,100327.13
2023-12-09T04:15:29.600Z,100324.50
2023-12-09T04:17:56.272Z,100317.38
2023-12-09T04:20:22.983Z,100323.59
2023-12-09T04:22:49.631Z,100322.91
2023-12-09T04:25:16.299Z,100317.59
2023-12-09T04:27:43.131Z,100319.25
2023-12-09T04:30:10.515Z,100315.59
2023-12-09T04:32:37.145Z,100315.44
2023-12-09T04:35:04.694Z,100326.84
2023-12-09T04:37:31.347Z,100329.47
2023-12-09T04:39:57.951Z,100331.97
2023-12-09T04:42:24.977Z,100333.88
2023-12-09T04:44:51.814Z,100327.28
2023-12-09T04:47:18.659Z,100323.13
2023-12-09T04:49:45.330Z,100325.06
2023-12-09T04:52:12.033Z,100321.22
2023-12-09T04:54:38.644Z,100326.47
2023-12-09T04:57:05.688Z,100325.53
2023-12-09T04:59:32.356Z,100322.81
2023-12-09T05:01:58.957Z,100332.16
2023-12-09T05:04:25.695Z,100325.84
2023-12-09T05:06:52.410Z,100330.19
2023-12-09T05:09:19.071Z,100323.78
2023-12-09T05:11:45.627Z,100326.03
2023-12-09T05:14:12.262Z,100328.59
2023-12-09T05:16:38.845Z,100329.28
2023-12-09T05:19:06.910Z,100326.47
2023-12-09T05:21:35.849Z,100326.41
2023-12-09T05:24:04.731Z,100328.91
2023-12-09T05:26:31.629Z,100330.56
2023-12-09T05:28:58.596Z,100333.13
2023-12-09T05:31:25.430Z,100332.56
2023-12-09T05:33:52.308Z,100338.94
2023-12-09T05:36:18.972Z,100345.88
2023-12-09T05:38:45.594Z,100352.69
2023-12-09T05:41:12.476Z,100347.31
2023-12-09T05:43:39.825Z,100354.97
2023-12-09T05:46:06.633Z,100353.00
2023-12-09T05:48:34.817Z,100349.25
2023-12-09T05:51:02.318Z,100336.88
2023-12-09T05:53:28.949Z,100337.13
2023-12-09T05:55:55.492Z,100335.28
2023-12-09T05:58:22.091Z,100324.66
2023-12-09T06:00:48.989Z,100327.94
2023-12-09T06:03:15.773Z,100334.03
2023-12-09T06:05:42.453Z,100339.13
2023-12-09T06:08:09.176Z,100334.88
2023-12-09T06:10:35.714Z,100337.63
2023-12-09T06:13:02.376Z,100335.28
2023-12-09T06:15:28.924Z,100340.47
2023-12-09T06:17:55.630Z,100345.50
2023-12-09T06:20:22.610Z,100341.84
2023-12-09T06:22:49.332Z,100343.44
2023-12-09T06:25:15.967Z,100336.31
2023-12-09T06:27:42.619Z,100348.38
2023-12-09T06:30:11.059Z,100344.81
2023-12-09T06:32:37.792Z,100336.88
2023-12-09T06:35:04.766Z,100338.94
2023-12-09T06:37:31.395Z,100339.97
2023-12-09T06:39:57.956Z,100353.94
2023-12-09T06:42:24.772Z,100346.88
2023-12-09T06:44:51.526Z,100336.31
2023-12-09T06:47:18.165Z,100338.72
2023-12-09T06:49:44.856Z,100347.22
2023-12-09T06:52:11.557Z,100348.78
2023-12-09T06:54:38.562Z,100344.19
2023-12-09T06:57:05.539Z,100338.84
2023-12-09T06:59:32.141Z,100343.91
2023-12-09T07:01:59.071Z,100356.31
2023-12-09T07:04:25.869Z,100351.84
2023-12-09T07:06:52.605Z,100351.06
2023-12-09T07:09:19.270Z,100350.22
2023-12-09T07:11:45.909Z,100355.41
2023-12-09T07:14:14.879Z,100351.84
2023-12-09T07:16:41.545Z,100355.19
2023-12-09T07:19:08.380Z,100362.00
2023-12-09T07:21:35.245Z,100354.81
2023-12-09T07:24:02.330Z,100359.84
2023-12-09T07:26:29.336Z,100366.81
2023-12-09T07:28:56.029Z,100364.13
2023-12-09T07:31:22.686Z,100362.34
2023-12-09T07:33:49.772Z,100366.75
2023-12-09T07:36:16.515Z,100360.50
2023-12-09T07:38:43.243Z,100362.06
2023-12-09T07:41:09.838Z,100352.19
2023-12-09T07:43:39.454Z,100358.00
2023-12-09T07:46:07.877Z,100367.31
2023-12-09T07:48:34.713Z,100366.22
2023-12-09T07:51:01.477Z,100355.56
2023-12-09T07:53:28.039Z,100357.88
2023-12-09T07:55:54.596Z,100354.28
2023-12-09T07:58:21.449Z,100352.34
2023-12-09T08:00:48.796Z,100358.25
2023-12-09T08:03:15.526Z,100360.63
2023-12-09T08:05:44.309Z,100357.00
2023-12-09T08:08:12.288Z,100352.81
2023-12-09T08:10:38.864Z,100350.44
2023-12-09T08:13:06.223Z,100346.19
2023-12-09T08:15:32.807Z,100342.66
2023-12-09T08:17:59.598Z,100345.88
2023-12-09T08:20:26.360Z,100358.75
2023-12-09T08:22:53.166Z,100354.47
2023-12-09T08:25:19.742Z,100357.03
2023-12-09T08:27:46.303Z,100352.50
2023-12-09T08:30:13.577Z,100357.59
2023-12-09T08:32:42.492Z,100359.66
2023-12-09T08:35:10.895Z,100357.44
2023-12-09T08:37:41.559Z,100357.97
2023-12-09T08:40:12.611Z,100357.97
2023-12-09T08:42:43.635Z,100356.34
2023-12-09T08:45:17.306Z,100360.25
2023-12-09T08:47:45.693Z,100350.19
2023-12-09T08:50:22.056Z,100363.81
2023-12-09T08:52:52.342Z,100358.47
2023-12-09T08:55:19.347Z,100358.84
2023-12-09T08:57:46.806Z,100361.22
2023-12-09T09:00:15.440Z,100373.69
2023-12-09T09:02:42.244Z,100368.09
2023-12-09T09:05:09.811Z,100360.13
2023-12-09T09:07:39.983Z,100363.53
2023-12-09T09:10:08.018Z,100356.47
2023-12-09T09:12:34.670Z,100370.22
2023-12-09T09:15:04.610Z,100365.63
2023-12-09T09:17:33.614Z,100355.41
2023-12-09T09:20:00.326Z,100359.16
2023-12-09T09:22:27.209Z,100363.03
2023-12-09T09:24:54.014Z,100354.88
2023-12-09T09:27:20.665Z,100359.59
2023-12-09T09:29:47.245Z,100354.66
2023-12-09T09:32:13.833Z,100347.13
2023-12-09T09:34:42.535Z,100351.06
2023-12-09T09:37:09.755Z,100349.66
2023-12-09T09:39:36.577Z,100342.34
2023-12-09T09:42:27.046Z,100336.75
2023-12-09T09:45:09.695Z,100335.91
2023-12-09T09:47:41.244Z,100334.91
2023-12-09T09:50:11.929Z,100329.97
2023-12-09T09:52:41.794Z,100329.91
2023-12-09T09:55:10.025Z,100330.44
2023-12-09T09:57:36.945Z,100323.66
2023-12-09T10:00:13.805Z,100320.69
2023-12-09T10:02:46.572Z,100318.03
2023-12-09T10:05:15.688Z,100324.47
2023-12-09T10:07:43.232Z,100313.06
2023-12-09T10:10:10.746Z,100316.88
2023-12-09T10:12:37.885Z,100319.84
2023-12-09T10:15:05.777Z,100312.41
2023-12-09T10:17:32.913Z,100317.28
2023-12-09T10:20:00.200Z,100309.22
2023-12-09T10:22:28.303Z,100301.06
2023-12-09T10:24:55.973Z,100294.63
2023-12-09T10:27:23.962Z,100299.00
2023-12-09T10:29:55.433Z,100289.22
2023-12-09T10:32:22.121Z,100292.41
2023-12-09T10:34:50.248Z,100291.09
2023-12-09T10:37:18.188Z,100291.09
2023-12-09T10:39:46.105Z,100280.88
2023-12-09T10:42:13.205Z,100281.69
2023-12-09T10:44:40.677Z,100274.28
2023-12-09T10:47:08.281Z,100269.06
2023-12-09T10:49:35.424Z,100270.09
2023-12-09T10:52:02.509Z,100268.66
2023-12-09T10:54:29.184Z,100276.38
2023-12-09T10:56:55.818Z,100273.63
2023-12-09T10:59:22.493Z,100274.97
2023-12-09T11:01:49.468Z,100271.28
2023-12-09T11:04:16.542Z,100267.19
2023-12-09T11:06:46.215Z,100268.94
2023-12-09T11:09:15.822Z,100257.91
2023-12-09T11:11:43.218Z,100256.19
2023-12-09T11:14:13.012Z,100251.63
2023-12-09T11:16:43.876Z,100246.28
2023-12-09T11:19:20.634Z,100250.72
2023-12-09T11:21:48.094Z,100252.13
2023-12-09T11:24:16.861Z,100252.75
2023-12-09T11:26:48.316Z,100252.75
2023-12-09T11:29:18.956Z,100266.56
2023-12-09T11:31:47.771Z,100260.00
2023-12-09T11:34:16.503Z,100259.78
2023-12-09T11:36:44.662Z,100257.78
2023-12-09T11:39:20.031Z,100265.09
2023-12-09T11:41:48.419Z,100254.94
2023-12-09T11:44:15.531Z,100254.31
2023-12-09T11:46:42.699Z,100244.78
2023-12-09T11:49:09.977Z,100244.59
2023-12-09T11:51:38.395Z,100242.75
2023-12-09T11:54:08.563Z,100232.78
2023-12-09T11:56:35.984Z,100236.56
2023-12-09T11:59:02.586Z,100231.78
2023-12-09T12:01:30.795Z,100235.03
2023-12-09T12:03:57.719Z,100235.63
2023-12-09T12:06:24.915Z,100231.09
2023-12-09T12:08:53.251Z,100233.19
2023-12-09T12:11:22.789Z,100234.97
2023-12-09T12:13:49.852Z,100229.41
2023-12-09T12:16:17.284Z,100225.25
2023-12-09T12:18:45.828Z,100224.06
2023-12-09T12:21:12.674Z,100238.84
2023-12-09T12:23:40.776Z,100229.25
2023-12-09T12:26:09.145Z,100220.75
2023-12-09T12:28:35.768Z,100218.75
2023-12-09T12:31:02.461Z,100220.97
2023-12-09T12:33:33.393Z,100217.28
2023-12-09T12:36:02.272Z,100218.75
2023-12-09T12:38:29.286Z,100219.97
2023-12-09T12:40:57.485Z,100221.44
2023-12-09T12:43:25.380Z,100218.25
2023-12-09T12:45:53.811Z,100212.41
2023-12-09T12:48:21.435Z,100207.53
2023-12-09T12:50:51.005Z,100206.56
2023-12-09T12:53:19.221Z,100200.50
2023-12-09T12:55:46.449Z,100198.44
2023-12-09T12:58:13.167Z,100206.44
2023-12-09T13:00:40.594Z,100195.25
2023-12-09T13:03:08.615Z,100197.50
2023-12-09T13:05:35.961Z,100196.84
2023-12-09T13:08:02.814Z,100202.59
2023-12-09T13:10:29.524Z,100192.47
2023-12-09T13:12:56.313Z,100193.63
2023-12-09T13:15:24.026Z,100198.44
2023-12-09T13:17:50.914Z,100191.53
2023-12-09T13:20:17.874Z,100196.47
2023-12-09T13:22:47.078Z,100196.72
2023-12-09T13:25:15.403Z,100201.16
2023-12-09T13:27:43.680Z,100205.44
2023-12-09T13:30:10.893Z,100203.59
2023-12-09T13:32:38.665Z,100203.66
2023-12-09T13:35:07.103Z,100195.59
2023-12-09T13:37:34.669Z,100204.28
2023-12-09T13:40:02.007Z,100200.81
2023-12-09T13:42:29.455Z,100205.72
2023-12-09T13:44:56.365Z,100205.69
2023-12-09T13:47:23.888Z,100209.66
2023-12-09T13:49:50.789Z,100207.56
2023-12-09T13:52:18.232Z,100198.53
2023-12-09T13:54:45.318Z,100196.03
2023-12-09T13:57:12.074Z,100200.03
2023-12-09T13:59:38.805Z,100196.31
2023-12-09T14:02:07.715Z,100198.13
2023-12-09T14:04:35.228Z,100193.97
2023-12-09T14:07:02.116Z,100191.34
2023-12-09T14:09:28.921Z,100195.19
2023-12-09T14:11:55.600Z,100197.78
2023-12-09T14:14:22.423Z,100195.63
2023-12-09T14:16:49.344Z,100180.31
2023-12-09T14:19:16.427Z,100179.81
2023-12-09T14:21:43.131Z,100183.00
2023-12-09T14:24:09.993Z,100188.66
2023-12-09T14:26:37.040Z,100186.34
2023-12-09T14:29:03.701Z,100175.41
2023-12-09T14:31:30.368Z,100179.72
2023-12-09T14:33:57.718Z,100175.09
2023-12-09T14:36:24.590Z,100162.50
2023-12-09T14:38:51.776Z,100169.41
2023-12-09T14:41:18.426Z,100168.66
2023-12-09T14:43:47.118Z,100170.50
2023-12-09T14:46:15.172Z,100165.75
2023-12-09T14:48:42.957Z,100160.91
2023-12-09T14:51:10.163Z,100159.06
2023-12-09T14:53:36.821Z,100156.19
2023-12-09T14:56:03.769Z,100151.59
2023-12-09T14:58:30.938Z,100147.53
2023-12-09T15:00:57.820Z,100144.91
2023-12-09T15:03:24.723Z,100145.88
2023-12-09T15:05:51.381Z,100144.66
2023-12-09T15:08:17.984Z,100144.25
2023-12-09T15:10:44.678Z,100155.06
2023-12-09T15:13:11.250Z,100149.56
2023-12-09T15:15:37.918Z,100141.91
2023-12-09T15:18:05.804Z,100147.75
2023-12-09T15:20:33.068Z,100139.69
2023-12-09T15:22:59.889Z,100132.09
2023-12-09T15:25:26.710Z,100125.84
2023-12-09T15:27:54.187Z,100117.13
2023-12-09T15:30:21.426Z,100125.44
2023-12-09T15:32:48.765Z,100122.00
2023-12-09T15:35:15.673Z,100119.53
2023-12-09T15:37:43.597Z,100123.28
2023-12-09T15:40:12.208Z,100118.56
2023-12-09T15:42:39.226Z,100118.78
2023-12-09T15:45:06.684Z,100105.44
2023-12-09T15:47:33.608Z,100110.13
2023-12-09T15:50:00.527Z,100113.94
2023-12-09T15:52:27.455Z,100111.69
2023-12-09T15:54:54.617Z,100110.13
2023-12-09T15:57:21.738Z,100112.28
2023-12-09T15:59:49.382Z,100123.22
2023-12-09T16:02:16.097Z,100118.38
2023-12-09T16:04:42.889Z,100116.66
2023-12-09T16:07:09.504Z,100124.88
2023-12-09T16:09:40.969Z,100118.31
2023-12-09T16:12:11.596Z,100115.22
2023-12-09T16:14:38.385Z,100121.47
2023-12-09T16:17:05.268Z,100114.97
2023-12-09T16:19:32.180Z,100110.41
2023-12-09T16:21:58.809Z,100113.72
2023-12-09T16:24:28.680Z,100105.38
2023-12-09T16:26:59.422Z,100103.00
2023-12-09T16:29:27.374Z,100105.81
2023-12-09T16:31:54.079Z,100104.06
2023-12-09T16:34:20.851Z,100099.72
2023-12-09T16:36:48.422Z,100098.59
2023-12-09T16:39:15.248Z,100084.50
2023-12-09T16:41:41.898Z,100072.53
2023-12-09T16:44:11.514Z,100071.69
2023-12-09T16:46:39.320Z,100084.44
2023-12-09T16:49:09.062Z,100082.88
2023-12-09T16:51:36.019Z,100077.56
2023-12-09T16:54:03.223Z,100077.41
2023-12-09T16:56:30.086Z,100083.00
2023-12-09T16:58:57.929Z,100084.63
2023-12-09T17:01:24.919Z,100089.09
2023-12-09T17:03:51.754Z,100093.75
2023-12-09T17:06:18.551Z,100082.75
2023-12-09T17:08:45.515Z,100073.91
2023-12-09T17:11:12.164Z,100074.63
2023-12-09T17:13:38.908Z,100065.13
2023-12-09T17:16:05.834Z,100064.69
2023-12-09T17:18:32.560Z,100060.25
2023-12-09T17:20:59.291Z,100059.63
2023-12-09T17:23:26.013Z,100053.09
2023-12-09T17:25:52.645Z,100069.94
2023-12-09T17:28:19.952Z,100060.63
2023-12-09T17:30:48.250Z,100068.78
2023-12-09T17:33:15.095Z,100075.09
2023-12-09T17:35:41.919Z,100066.22
2023-12-09T17:38:08.682Z,100059.22
2023-12-09T17:40:35.383Z,100065.81
2023-12-09T17:43:02.059Z,100067.44
2023-12-09T17:45:28.760Z,100068.09
2023-12-09T17:47:55.423Z,100052.69
2023-12-09T17:50:22.727Z,100044.97
2023-12-09T17:52:49.530Z,100042.09
2023-12-09T17:55:16.162Z,100048.34
2023-12-09T17:57:42.912Z,100041.03
2023-12-09T18:00:11.548Z,100037.31
2023-12-09T18:02:38.703Z,100036.38
2023-12-09T18:05:05.810Z,100038.53
2023-12-09T18:07:32.661Z,100030.25
2023-12-09T18:09:59.536Z,100022.44
2023-12-09T18:12:26.492Z,100028.47
2023-12-09T18:14:53.266Z,100026.78
2023-12-09T18:17:20.245Z,100025.31
2023-12-09T18:19:47.858Z,100033.47
2023-12-09T18:22:14.672Z,100036.44
2023-12-09T18:24:42.041Z,100032.84
2023-12-09T18:27:08.857Z,100034.03
2023-12-09T18:29:35.505Z,100030.63
2023-12-09T18:32:02.093Z,100020.03
2023-12-09T18:34:28.851Z,100009.09
2023-12-09T18:36:55.481Z,100003.28
2023-12-09T18:39:22.658Z,100015.78
2023-12-09T18:41:49.295Z,100019.66
2023-12-09T18:44:16.532Z,100022.13
2023-12-09T18:46:43.346Z,100016.75
2023-12-09T18:49:11.108Z,100015.19
2023-12-09T18:51:37.870Z,100018.19
2023-12-09T18:54:04.693Z,100010.00
2023-12-09T18:56:31.874Z,100012.47
2023-12-09T18:58:58.505Z,100001.13
2023-12-09T19:01:25.368Z,99992.31
2023-12-09T19:03:52.813Z,99978.56
2023-12-09T19:06:20.261Z,99957.50
2023-12-09T19:08:46.887Z,99948.88
2023-12-09T19:11:13.520Z,99940.59
2023-12-09T19:13:40.127Z,99938.47
2023-12-09T19:16:07.901Z,99951.13
2023-12-09T19:18:34.782Z,99942.16
2023-12-09T19:21:02.498Z,99939.91
2023-12-09T19:23:29.128Z,99943.50
2023-12-09T19:25:55.984Z,99946.72
2023-12-09T19:28:22.596Z,99921.06
2023-12-09T19:30:49.385Z,99933.19
2023-12-09T19:33:16.211Z,99927.72
2023-12-09T19:35:43.070Z,99925.97
2023-12-09T19:38:09.707Z,99929.03
2023-12-09T19:40:36.314Z,99927.28
2023-12-09T19:43:03.049Z,99925.75
2023-12-09T19:45:29.699Z,99916.66
2023-12-09T19:47:57.412Z,99903.28
2023-12-09T19:50:25.112Z,99899.81
2023-12-09T19:52:52.252Z,99899.13
2023-12-09T19:55:18.936Z,99904.72
2023-12-09T19:57:45.833Z,99899.66
2023-12-09T20:00:15.983Z,99887.69
2023-12-09T20:02:45.462Z,99885.09
2023-12-09T20:05:12.506Z,99882.84
2023-12-09T20:07:39.345Z,99880.91
2023-12-09T20:10:06.642Z,99876.25
2023-12-09T20:12:33.286Z,99871.81
2023-12-09T20:15:00.073Z,99883.31
2023-12-09T20:17:26.762Z,99878.19
2023-12-09T20:19:53.551Z,99868.41
2023-12-09T20:22:21.476Z,99862.63
2023-12-09T20:24:48.270Z,99851.81
2023-12-09T20:27:15.043Z,99859.28
2023-12-09T20:29:42.025Z,99860.19
2023-12-09T20:32:08.630Z,99862.41
2023-12-09T20:34:35.427Z,99860.25
2023-12-09T20:37:02.565Z,99865.72
2023-12-09T20:39:29.348Z,99860.50
2023-12-09T20:41:56.011Z,99859.00
2023-12-09T20:44:22.610Z,99859.38
2023-12-09T20:46:50.267Z,99856.16
2023-12-09T20:49:18.616Z,99848.19
2023-12-09T20:51:45.991Z,99851.44
2023-12-09T20:54:12.980Z,99843.06
2023-12-09T20:56:39.894Z,99843.72
2023-12-09T20:59:08.251Z,99839.75
2023-12-09T21:01:42.872Z,99822.97
2023-12-09T21:04:09.568Z,99815.91
2023-12-09T21:06:36.908Z,99811.03
2023-12-09T21:09:05.351Z,99807.56
2023-12-09T21:11:34.940Z,99795.22
2023-12-09T21:14:02.272Z,99792.56
2023-12-09T21:16:28.868Z,99798.44
2023-12-09T21:18:56.185Z,99808.16
2023-12-09T21:21:23.107Z,99804.63
2023-12-09T21:23:50.243Z,99796.66
2023-12-09T21:26:17.188Z,99792.09
2023-12-09T21:28:43.780Z,99776.88
2023-12-09T21:31:14.100Z,99765.59
2023-12-09T21:33:41.318Z,99758.50
2023-12-09T21:36:13.031Z,99765.53
2023-12-09T21:38:46.162Z,99777.41
2023-12-09T21:41:22.622Z,99777.53
2023-12-09T21:43:50.261Z,99781.13
2023-12-09T21:46:24.049Z,99778.81
2023-12-09T21:48:52.370Z,99783.47
2023-12-09T21:51:20.044Z,99776.72
2023-12-09T21:53:46.725Z,99777.72
2023-12-09T21:56:24.414Z,99774.03
2023-12-09T21:58:51.849Z,99768.00
2023-12-09T22:01:19.610Z,99764.66
2023-12-09T22:03:46.823Z,99770.56
2023-12-09T22:06:14.262Z,99749.66
2023-12-09T22:08:42.601Z,99742.97
2023-12-09T22:11:10.294Z,99732.50
2023-12-09T22:13:37.262Z,99729.78
2023-12-09T22:16:04.081Z,99715.28
2023-12-09T22:18:30.849Z,99728.28
2023-12-09T22:20:59.460Z,99717.00
2023-12-09T22:23:26.137Z,99716.84
2023-12-09T22:25:52.781Z,99721.81
2023-12-09T22:28:19.407Z,99725.59
2023-12-09T22:30:46.388Z,99730.16
2023-12-09T22:33:13.142Z,99730.88
2023-12-09T22:35:39.861Z,99722.13
2023-12-09T22:38:06.435Z,99725.75
2023-12-09T22:40:34.682Z,99722.72
2023-12-09T22:43:01.719Z,99722.28
2023-12-09T22:45:28.322Z,99719.69
2023-12-09T22:47:55.149Z,99718.75
2023-12-09T22:50:22.824Z,99720.13
2023-12-09T22:52:49.438Z,99728.41
2023-12-09T22:55:16.106Z,99733.06
2023-12-09T22:57:42.916Z,99721.63
2023-12-09T23:00:11.300Z,99715.94
2023-12-09T23:02:38.016Z,99710.84
2023-12-09T23:05:04.928Z,99706.47
2023-12-09T23:07:31.544Z,99706.47
2023-12-09T23:09:58.187Z,99688.75
2023-12-09T23:12:24.801Z,99688.56
2023-12-09T23:14:51.546Z,99679.53
2023-12-09T23:17:18.175Z,99660.63
2023-12-09T23:19:46.296Z,99650.03
2023-12-09T23:22:12.946Z,99644.25
2023-12-09T23:24:40.292Z,99630.13
2023-12-09T23:27:07.169Z,99615.38
2023-12-09T23:29:33.920Z,99609.16
2023-12-09T23:32:01.054Z,99593.97
2023-12-09T23:34:27.833Z,99608.25
2023-12-09T23:36:56.388Z,99615.38
2023-12-09T23:39:23.258Z,99619.75
2023-12-09T23:41:50.714Z,99619.97
2023-12-09T23:44:17.295Z,99621.00
2023-12-09T23:46:44.953Z,99631.09
2023-12-09T23:49:11.606Z,99622.94
2023-12-09T23:51:38.553Z,99607.94
2023-12-09T23:54:05.327Z,99605.66
2023-12-09T23:56:31.980Z,99605.38
2023-12-09T23:58:59.321Z,99607.59
